Time;durP1;ratioP1;P1;durP2;ratioP2;P2;SDS_P1;SDS_P2;PMS_P1;PMS_P2;Temp;Humidity;BMP_temperature;BMP_pressure;BME280_temperature;BME280_humidity;BME280_pressure;Samples;Min_cycle;Max_cycle;Signal;HPM_P1;HPM_P2
2024/03/15 00:00:19;;;;;;;14.70;11.67;;;9.00;99.90;;;-141.84;100.00;113359.50;5069576;28;20221;-64
2024/03/15 00:02:49;;;;;;;14.10;11.43;;;8.90;99.90;;;-141.84;100.00;114424.91;5070344;28;20229;-62
2024/03/15 00:05:19;;;;;;;14.50;12.07;;;8.90;99.90;;;-141.84;100.00;115224.16;5072775;28;20248;-61
2024/03/15 00:07:48;;;;;;;13.77;11.60;;;8.90;99.90;;;-141.84;100.00;112294.34;5072215;28;20564;-61
2024/03/15 00:10:16;;;;;;;13.77;11.63;;;8.90;99.90;;;-141.84;100.00;111495.69;5073613;28;20826;-62
2024/03/15 00:12:45;;;;;;;15.43;12.70;;;8.90;99.90;;;-141.84;100.00;111495.69;5073256;28;20255;-61
2024/03/15 00:15:14;;;;;;;14.93;12.30;;;8.90;99.90;;;-141.84;100.00;112294.34;5069326;28;20229;-62
2024/03/15 00:17:43;;;;;;;15.53;12.80;;;8.90;99.90;;;-141.84;100.00;110164.91;5074424;28;20251;-62
2024/03/15 00:20:11;;;;;;;14.80;11.63;;;9.00;99.90;;;-141.84;100.00;110431.03;5070750;28;20231;-62
2024/03/15 00:22:40;;;;;;;14.23;11.57;;;8.90;99.90;;;-141.84;100.00;111495.69;5072651;28;20207;-61
2024/03/15 00:25:09;;;;;;;17.17;12.53;;;8.90;99.90;;;-141.84;100.00;111761.88;5075476;28;20219;-62
2024/03/15 00:27:38;;;;;;;13.63;11.33;;;8.90;99.90;;;-141.84;100.00;112294.34;5070491;28;20236;-62
2024/03/15 00:30:08;;;;;;;14.03;11.60;;;8.90;99.90;;;-141.84;100.00;112826.88;5070592;28;20224;-62
2024/03/15 00:32:37;;;;;;;14.80;11.57;;;8.90;99.90;;;-141.84;100.00;114691.31;5074296;28;20215;-60
2024/03/15 00:35:06;;;;;;;15.97;11.80;;;8.80;99.90;;;-141.84;100.00;115224.16;5070795;28;20228;-56
2024/03/15 00:37:35;;;;;;;14.77;11.43;;;8.80;99.90;;;-141.84;100.00;114957.72;5072149;28;20276;-58
2024/03/15 00:40:05;;;;;;;15.07;11.73;;;8.80;99.90;;;-141.84;100.00;114158.53;5074938;28;20220;-56
2024/03/15 00:42:34;;;;;;;16.03;12.97;;;8.70;99.90;;;-141.84;100.00;112560.63;5074306;28;20228;-59
2024/03/15 00:45:02;;;;;;;15.27;12.27;;;8.80;99.90;;;-141.84;100.00;113892.16;5074303;28;20302;-57
2024/03/15 00:47:35;;;;;;;14.60;12.30;;;8.80;99.90;;;-141.84;100.00;114691.31;5070043;28;20614;-56
2024/03/15 00:50:04;;;;;;;19.43;13.03;;;8.80;99.90;;;-141.84;100.00;115490.59;5071116;28;20229;-58
2024/03/15 00:52:33;;;;;;;16.07;12.40;;;8.80;99.90;;;-141.84;100.00;114691.31;5073979;28;20232;-57
2024/03/15 00:55:02;;;;;;;13.87;11.90;;;8.80;99.90;;;-141.84;100.00;111761.88;5057276;28;20641;-57
2024/03/15 00:57:31;;;;;;;14.53;12.37;;;8.80;99.90;;;-141.84;100.00;111229.50;5055135;28;20346;-57
2024/03/15 00:59:59;;;;;;;16.57;13.17;;;8.80;99.90;;;-141.84;100.00;109366.66;5073545;28;20236;-58
2024/03/15 01:02:28;;;;;;;14.87;12.23;;;8.90;99.90;;;-141.84;100.00;105643.53;5069776;28;20773;-58
2024/03/15 01:04:59;;;;;;;14.80;12.00;;;8.90;99.90;;;-141.84;100.00;110164.91;5072999;28;20293;-55
2024/03/15 01:07:29;;;;;;;15.97;12.63;;;8.80;99.90;;;-141.84;100.00;112560.63;5074404;28;20196;-56
2024/03/15 01:09:57;;;;;;;16.23;13.20;;;8.80;99.90;;;-141.84;100.00;114424.91;5073949;28;20215;-56
2024/03/15 01:12:25;;;;;;;16.30;12.87;;;8.70;99.90;;;-141.84;100.00;114957.72;5081541;28;20251;-57
2024/03/15 01:14:54;;;;;;;16.17;12.90;;;8.70;99.90;;;-141.84;100.00;111229.50;5073849;28;20232;-58
2024/03/15 01:17:23;;;;;;;16.13;12.90;;;8.80;99.90;;;-141.84;100.00;105111.94;5073888;28;20219;-56
2024/03/15 01:19:52;;;;;;;16.30;13.00;;;8.80;99.90;;;-141.84;100.00;105111.94;5074844;28;20311;-56
2024/03/15 01:22:21;;;;;;;16.73;13.17;;;8.80;99.90;;;-141.84;100.00;105377.72;5074346;28;20298;-54
2024/03/15 01:24:49;;;;;;;17.37;13.03;;;8.80;99.90;;;-141.84;100.00;108302.56;5071538;28;20248;-56
2024/03/15 01:27:18;;;;;;;17.73;13.43;;;8.80;99.90;;;-141.84;100.00;110164.91;5073715;28;20224;-56
2024/03/15 01:29:46;;;;;;;16.70;13.27;;;8.70;99.90;;;-141.84;100.00;108036.56;5073748;28;20224;-57
2024/03/15 01:32:15;;;;;;;16.40;12.90;;;8.70;99.90;;;-141.84;100.00;108834.56;5070792;28;20224;-55
2024/03/15 01:34:44;;;;;;;17.97;13.20;;;8.70;99.90;;;-141.84;99.68;104048.94;5077496;28;20192;-58
2024/03/15 01:37:12;;;;;;;18.00;13.13;;;8.80;99.90;;;-141.84;100.00;105909.34;5073890;28;20285;-57
2024/03/15 01:39:41;;;;;;;16.40;12.83;;;8.70;99.90;;;-141.84;100.00;109632.72;5075589;28;20291;-58
2024/03/15 01:42:11;;;;;;;18.17;14.27;;;8.70;99.90;;;-141.84;100.00;112560.63;5077802;28;20227;-56
2024/03/15 01:44:50;;;;;;;16.57;13.40;;;8.60;99.90;;;-141.84;100.00;112560.63;5076979;28;20775;-56
2024/03/15 01:47:19;;;;;;;18.20;13.00;;;8.60;99.90;;;-141.84;100.00;114424.91;5074319;28;20224;-55
2024/03/15 01:49:49;;;;;;;17.37;12.97;;;8.50;99.90;;;-141.84;100.00;113359.50;5077213;28;20239;-56
2024/03/15 01:52:18;;;;;;;17.67;13.20;;;8.50;99.90;;;-141.84;100.00;115490.59;5079071;28;20285;-55
2024/03/15 01:54:46;;;;;;;17.63;13.70;;;8.50;99.90;;;-141.84;100.00;109100.59;5078297;28;20224;-56
2024/03/15 01:57:15;;;;;;;17.20;13.47;;;8.60;99.90;;;-141.84;100.00;109632.72;5074337;28;20591;-56
2024/03/15 01:59:44;;;;;;;19.10;14.43;;;8.60;99.90;;;-141.84;100.00;106706.94;5061012;28;20231;-57
2024/03/15 02:02:13;;;;;;;19.47;13.90;;;8.60;99.90;;;-141.84;100.00;105111.94;5077631;28;20257;-56
2024/03/15 02:04:42;;;;;;;18.10;13.27;;;8.70;99.90;;;-141.84;99.34;102720.59;5074771;28;20197;-57
2024/03/15 02:07:10;;;;;;;17.67;13.40;;;8.70;99.90;;;-141.84;100.00;104846.16;5078291;28;20248;-55
2024/03/15 02:09:38;;;;;;;18.73;14.27;;;8.70;99.90;;;-141.84;100.00;106175.19;5076283;28;20327;-56
2024/03/15 02:12:07;;;;;;;16.13;13.47;;;8.70;99.90;;;-141.84;100.00;108302.56;5057538;28;20243;-57
2024/03/15 02:14:35;;;;;;;16.90;13.33;;;8.70;99.90;;;-141.84;100.00;109100.59;5076156;28;20228;-56
2024/03/15 02:17:04;;;;;;;19.57;13.97;;;8.70;99.90;;;-141.84;100.00;108568.56;5076462;28;20258;-56
2024/03/15 02:19:32;;;;;;;18.53;13.83;;;8.70;99.90;;;-141.84;100.00;110431.03;5077274;28;20197;-57
2024/03/15 02:22:01;;;;;;;17.43;13.50;;;8.70;99.90;;;-141.84;100.00;111761.88;5076723;28;20239;-58
2024/03/15 02:24:30;;;;;;;19.10;13.97;;;8.70;99.90;;;-141.84;100.00;110697.16;5073172;28;20221;-57
2024/03/15 02:26:58;;;;;;;19.03;13.37;;;8.70;99.90;;;-141.84;97.33;99268.97;5074768;28;20583;-58
2024/03/15 02:29:26;;;;;;;16.97;13.17;;;8.80;99.90;;;-141.84;97.43;97942.19;5075958;28;20244;-56
2024/03/15 02:31:57;;;;;;;19.63;13.80;;;8.80;99.90;;;-141.84;99.27;102189.38;5076847;28;20196;-56
2024/03/15 02:34:26;;;;;;;19.40;13.30;;;8.80;99.90;;;-141.84;97.10;98207.50;5066990;28;20307;-57
2024/03/15 02:36:56;;;;;;;19.03;13.70;;;8.80;99.90;;;-141.84;96.17;95820.25;5077132;28;20228;-57
2024/03/15 02:39:25;;;;;;;15.70;12.10;;;8.90;99.90;;;-141.84;98.32;99268.97;5076240;28;20247;-56
2024/03/15 02:41:54;;;;;;;16.70;12.93;;;8.80;99.90;;;-141.84;97.30;97942.19;5068177;28;20216;-55
2024/03/15 02:44:22;;;;;;;17.93;13.50;;;8.90;99.90;;;-141.84;98.33;101392.69;5076027;28;20750;-57
2024/03/15 02:46:50;;;;;;;17.13;12.90;;;8.80;99.90;;;-141.84;97.32;97411.59;5075553;28;20200;-55
2024/03/15 02:49:19;;;;;;;18.77;13.23;;;8.90;99.90;;;-141.84;100.00;103783.25;5065737;28;20228;-56
2024/03/15 02:51:48;;;;;;;20.67;13.23;;;8.80;99.90;;;-141.84;93.82;90785.09;5047831;28;20224;-55
2024/03/15 02:54:17;;;;;;;20.73;13.57;;;9.00;99.90;;;-141.84;94.03;90785.09;5038723;28;20310;-57
2024/03/15 02:56:46;;;;;;;16.97;13.33;;;9.00;99.90;;;-141.84;92.16;85227.25;5075045;28;20235;-60
2024/03/15 02:59:15;;;;;;;18.93;13.67;;;9.10;99.90;;;-141.84;93.87;88666.94;5075482;28;20281;-57
2024/03/15 03:01:46;;;;;;;18.47;13.23;;;9.10;99.90;;;-141.84;95.35;93169.38;5073132;28;20201;-57
2024/03/15 03:04:14;;;;;;;17.23;13.07;;;9.00;99.90;;;-141.84;97.59;98207.50;5035642;28;20654;-56
2024/03/15 03:06:43;;;;;;;17.47;13.13;;;9.00;99.90;;;-141.84;100.00;104314.66;5065733;28;20673;-56
2024/03/15 03:09:12;;;;;;;17.67;13.07;;;8.90;99.90;;;-141.84;98.42;101127.16;5032076;28;20221;-56
2024/03/15 03:11:41;;;;;;;17.77;13.30;;;8.90;99.90;;;-141.84;97.87;100065.22;5035494;28;20252;-57
2024/03/15 03:14:12;;;;;;;16.87;12.90;;;8.90;99.90;;;-141.84;96.36;96350.63;5038885;28;20238;-56
2024/03/15 03:16:42;;;;;;;18.00;13.40;;;8.90;99.90;;;-141.84;95.37;93699.44;5030050;28;20213;-56
2024/03/15 03:19:10;;;;;;;17.33;12.37;;;9.00;99.90;;;-141.84;97.03;96881.06;5053133;28;20316;-56
2024/03/15 03:21:39;;;;;;;16.37;11.43;;;8.90;99.90;;;-141.84;100.00;103251.88;5053722;28;20415;-56
2024/03/15 03:24:07;;;;;;;18.93;12.70;;;8.90;99.90;;;-141.84;100.00;108302.56;5041385;28;20270;-54
2024/03/15 03:26:36;;;;;;;18.70;13.10;;;8.80;99.90;;;-141.84;100.00;109100.59;5062656;28;20308;-56
2024/03/15 03:29:05;;;;;;;16.40;12.43;;;8.80;99.90;;;-141.84;100.00;110697.16;5065534;28;20248;-55
2024/03/15 03:31:33;;;;;;;18.00;13.13;;;8.70;99.90;;;-141.84;100.00;111495.69;5073077;28;20201;-56
2024/03/15 03:34:03;;;;;;;16.57;12.87;;;8.70;99.90;;;-141.84;100.00;110431.03;5049983;28;20303;-56
2024/03/15 03:36:32;;;;;;;16.77;13.23;;;8.70;99.90;;;-141.84;100.00;109898.81;5055418;28;20216;-54
2024/03/15 03:39:00;;;;;;;16.93;12.63;;;8.70;99.90;;;-141.84;100.00;107770.63;5058763;28;20703;-57
2024/03/15 03:41:31;;;;;;;15.97;12.07;;;8.70;99.90;;;-141.84;100.00;106441.06;5057469;28;20274;-57
2024/03/15 03:44:00;;;;;;;17.33;12.63;;;8.80;99.90;;;-141.84;100.00;104846.16;5075105;28;20302;-57
2024/03/15 03:46:28;;;;;;;16.27;12.57;;;8.80;99.90;;;-141.84;97.70;99534.38;5075223;28;20279;-58
2024/03/15 03:48:57;;;;;;;16.50;12.40;;;8.80;99.90;;;-141.84;96.80;97942.19;5072404;28;20788;-56
2024/03/15 03:51:25;;;;;;;17.73;12.03;;;8.80;99.90;;;-141.84;97.81;99003.56;5051535;28;20225;-55
2024/03/15 03:53:53;;;;;;;15.43;11.57;;;8.80;99.90;;;-141.84;99.17;102189.38;5029282;28;20723;-57
2024/03/15 03:56:22;;;;;;;17.93;12.23;;;8.80;99.90;;;-141.84;96.31;97942.19;5045651;28;20303;-55
2024/03/15 03:58:50;;;;;;;17.27;12.37;;;8.90;99.90;;;-141.84;93.07;86814.44;5068958;28;20733;-55
2024/03/15 04:01:18;;;;;;;18.37;12.37;;;8.90;99.90;;;-141.84;95.77;93699.44;5075117;28;20215;-56
2024/03/15 04:03:49;;;;;;;18.03;11.87;;;8.90;99.90;;;-141.84;97.14;97146.31;5073555;28;20960;-56
2024/03/15 04:06:18;;;;;;;16.87;12.27;;;8.90;99.90;;;-141.84;96.03;96085.44;5074798;28;20211;-55
2024/03/15 04:08:48;;;;;;;15.57;11.60;;;8.90;99.90;;;-141.84;95.68;93964.47;5073702;28;20251;-57
2024/03/15 04:11:17;;;;;;;16.23;11.87;;;8.90;99.90;;;-141.84;97.20;97942.19;5063093;28;20722;-57
2024/03/15 04:13:46;;;;;;;16.87;12.60;;;8.90;99.90;;;-141.84;96.38;96350.63;5070463;28;20192;-57
2024/03/15 04:16:14;;;;;;;16.03;11.90;;;8.90;99.90;;;-141.84;97.24;97676.88;5046651;28;20196;-56
2024/03/15 04:18:43;;;;;;;16.53;12.90;;;8.80;99.90;;;-141.84;99.72;103251.88;5051196;28;20225;-56
2024/03/15 04:21:16;;;;;;;15.23;11.73;;;8.80;99.90;;;-141.84;98.47;101923.81;5026612;28;20221;-56
2024/03/15 04:23:44;;;;;;;17.13;11.80;;;8.80;99.90;;;-141.84;97.35;98738.19;5043833;28;20282;-56
2024/03/15 04:26:13;;;;;;;16.90;12.40;;;8.70;99.90;;;-141.84;99.00;101923.81;5035215;28;20300;-57
2024/03/15 04:28:41;;;;;;;16.50;12.40;;;8.70;99.90;;;-141.84;100.00;104580.41;5033598;28;20229;-55
2024/03/15 04:31:10;;;;;;;16.07;11.60;;;8.70;99.90;;;-141.84;100.00;106441.06;5026752;28;20290;-58
2024/03/15 04:33:38;;;;;;;15.87;11.70;;;8.70;99.90;;;-141.84;100.00;108834.56;5028798;28;20217;-57
2024/03/15 04:36:07;;;;;;;15.77;11.87;;;8.70;99.90;;;-141.84;100.00;109898.81;5036832;28;20232;-56
2024/03/15 04:38:37;;;;;;;14.83;12.03;;;8.70;99.90;;;-141.84;100.00;107770.63;5036751;28;20873;-55
2024/03/15 04:41:10;;;;;;;15.40;11.90;;;8.70;99.90;;;-141.84;100.00;105909.34;5049944;28;20302;-55
2024/03/15 04:43:40;;;;;;;17.03;12.53;;;8.70;99.90;;;-141.84;100.00;107770.63;5055942;28;20873;-55
2024/03/15 04:46:09;;;;;;;16.70;11.83;;;8.60;99.90;;;-141.84;100.00;109100.59;5074149;28;20695;-56
2024/03/15 04:48:38;;;;;;;16.10;12.70;;;8.60;99.90;;;-141.84;100.00;109366.66;5074166;28;20250;-53
2024/03/15 04:51:06;;;;;;;16.50;11.53;;;8.60;99.90;;;-141.84;100.00;108302.56;5070021;28;20216;-56
2024/03/15 04:53:35;;;;;;;15.87;11.57;;;8.60;99.90;;;-141.84;100.00;109100.59;5060991;28;20308;-53
2024/03/15 04:56:03;;;;;;;16.70;12.10;;;8.60;99.90;;;-141.84;100.00;109898.81;5042964;28;20228;-55
2024/03/15 04:58:33;;;;;;;16.63;12.57;;;8.60;99.90;;;-141.84;100.00;106175.19;5057198;28;20828;-56
2024/03/15 05:01:02;;;;;;;16.33;11.90;;;8.60;99.90;;;-141.84;100.00;106972.81;5073388;28;20223;-56
2024/03/15 05:03:32;;;;;;;15.57;12.63;;;8.60;99.90;;;-141.84;100.00;105643.53;5072877;28;20297;-56
2024/03/15 05:06:00;;;;;;;17.87;12.37;;;8.60;99.90;;;-141.84;100.00;105643.53;5062541;28;20216;-54
2024/03/15 05:08:37;;;;;;;14.77;11.00;;;8.60;99.90;;;-141.84;100.00;106175.19;5048838;28;20239;-58
2024/03/15 05:11:06;;;;;;;16.23;11.87;;;8.60;99.90;;;-141.84;100.00;108568.56;5054673;28;20229;-54
2024/03/15 05:13:35;;;;;;;18.17;12.10;;;8.60;99.90;;;-141.84;100.00;110431.03;5028577;28;20189;-55
2024/03/15 05:16:04;;;;;;;16.67;12.80;;;8.60;99.90;;;-141.84;100.00;108568.56;5054065;28;20274;-57
2024/03/15 05:18:34;;;;;;;16.33;11.73;;;8.60;99.90;;;-141.84;99.77;104048.94;5067421;28;20669;-56
2024/03/15 05:21:02;;;;;;;18.73;12.60;;;8.60;99.90;;;-141.84;100.00;104314.66;5069294;28;20216;-55
2024/03/15 05:23:31;;;;;;;18.67;12.43;;;8.60;99.90;;;-141.84;100.00;106706.94;5071665;28;20693;-62
2024/03/15 05:25:59;;;;;;;16.43;11.60;;;8.60;99.90;;;-141.84;100.00;110164.91;5074280;28;20297;-61
2024/03/15 05:28:30;;;;;;;18.63;12.67;;;8.50;99.90;;;-141.84;100.00;112560.63;5070052;28;20204;-62
2024/03/15 05:31:03;;;;;;;16.27;12.63;;;8.50;99.90;;;-141.84;100.00;113359.50;5072153;28;20232;-61
2024/03/15 05:33:35;;;;;;;18.37;13.73;;;8.50;99.90;;;-141.84;100.00;109100.59;5051225;28;20273;-62
2024/03/15 05:36:04;;;;;;;17.73;12.23;;;8.50;99.90;;;-141.84;97.14;98207.50;5031842;28;20217;-61
2024/03/15 05:38:33;;;;;;;16.07;11.87;;;8.70;99.90;;;-141.84;99.07;101923.81;5037101;28;20308;-62
2024/03/15 05:41:03;;;;;;;18.37;13.03;;;8.70;99.90;;;-141.84;99.56;103783.25;5037046;28;20225;-61
2024/03/15 05:43:31;;;;;;;18.33;13.03;;;8.70;99.90;;;-141.84;95.67;94494.59;5055395;28;20217;-63
2024/03/15 05:46:00;;;;;;;16.47;11.97;;;8.80;99.90;;;-141.84;94.51;90785.09;5069446;28;20646;-61
2024/03/15 05:48:31;;;;;;;16.30;12.63;;;8.90;99.90;;;-141.84;97.66;98472.84;5040118;28;20217;-62
2024/03/15 05:50:59;;;;;;;15.27;12.00;;;8.90;99.90;;;-141.84;100.00;104314.66;5051115;28;20818;-61
2024/03/15 05:53:29;;;;;;;17.67;12.80;;;8.80;99.90;;;-141.84;100.00;108834.56;5040870;28;20245;-62
2024/03/15 05:55:57;;;;;;;17.33;12.37;;;8.80;99.90;;;-141.84;100.00;108036.56;5028835;28;20210;-61
2024/03/15 05:58:26;;;;;;;18.27;12.40;;;8.80;99.90;;;-141.84;98.64;102986.25;5071559;28;20251;-61
2024/03/15 06:00:55;;;;;;;16.27;12.33;;;8.80;99.90;;;-141.84;95.29;94759.69;5067201;28;20217;-61
2024/03/15 06:03:23;;;;;;;16.57;12.53;;;8.90;99.90;;;-141.84;93.06;88137.56;5049764;28;20727;-61
2024/03/15 06:05:52;;;;;;;16.73;12.13;;;9.00;99.90;;;-141.84;94.55;90785.09;5041376;28;20708;-61
2024/03/15 06:08:21;;;;;;;17.73;11.97;;;9.00;99.90;;;-141.84;98.16;100330.69;5072784;28;20220;-61
2024/03/15 06:10:51;;;;;;;21.00;13.20;;;9.00;99.90;;;-141.84;94.96;94494.59;5066660;28;20834;-61
2024/03/15 06:13:19;;;;;;;17.23;15.33;;;9.00;99.90;;;-141.84;92.55;86549.84;5070809;28;20189;-61
2024/03/15 06:15:48;;;;;;;16.03;12.30;;;9.10;99.90;;;-141.84;92.99;87343.63;5044801;28;20224;-62
2024/03/15 06:18:17;;;;;;;16.03;11.77;;;9.20;99.90;;;-141.84;90.29;79148.88;5048024;28;20235;-61
2024/03/15 06:20:45;;;;;;;17.70;13.03;;;9.30;99.90;;;-141.84;90.80;79412.97;5073314;28;20251;-61
2024/03/15 06:23:15;;;;;;;16.47;11.93;;;9.30;99.90;;;-141.84;92.26;84962.78;5052560;28;20700;-61
2024/03/15 06:25:44;;;;;;;16.70;12.37;;;9.30;99.90;;;-141.84;92.78;86814.44;5061141;28;20203;-61
2024/03/15 06:28:14;;;;;;;15.73;11.63;;;9.30;99.90;;;-141.84;91.85;85227.25;5076034;28;20280;-61
2024/03/15 06:30:45;;;;;;;16.10;12.67;;;9.40;99.90;;;-141.84;87.72;69916.81;5053967;28;20225;-61
2024/03/15 06:33:14;;;;;;;15.70;11.67;;;9.50;99.90;;;-141.84;85.48;56239.94;5066269;28;20232;-62
2024/03/15 06:35:43;;;;;;;16.07;11.70;;;9.60;99.90;;;-141.84;83.51;44703.94;5051851;28;20220;-61
2024/03/15 06:38:27;;;;;;;16.93;12.33;;;9.70;99.90;;;-141.84;83.17;38617.69;5066324;28;20228;-62
2024/03/15 06:41:13;;;;;;;16.50;12.07;;;9.80;99.90;;;-141.84;85.72;57027.72;5072796;28;20192;-61
2024/03/15 06:43:45;;;;;;;17.80;11.90;;;9.80;99.90;;;-141.84;83.97;46275.03;5057198;28;20188;-61
2024/03/15 06:46:24;;;;;;;15.57;11.17;;;9.90;99.90;;;-141.84;84.30;48370.84;5077307;28;20604;-61
2024/03/15 06:48:59;;;;;;;14.93;12.30;;;10.00;99.90;;;-141.84;84.14;48894.97;5059080;28;20220;-61
2024/03/15 06:54:15;;;;;;;15.20;12.03;;;10.10;99.90;;;-141.84;81.83;31851.75;5058373;28;20307;-61
2024/03/15 06:56:44;;;;;;;17.50;13.07;;;10.20;99.90;;;-141.84;79.84;23394.47;5080215;28;20285;-61
2024/03/15 06:59:14;;;;;;;17.93;12.67;;;10.30;99.90;;;-141.84;80.66;26172.19;5079146;28;20232;-57
2024/03/15 07:01:43;;;;;;;14.87;11.83;;;10.30;99.90;;;-141.84;79.24;21738.97;5052775;28;20197;-58
2024/03/15 07:04:14;;;;;;;14.53;11.13;;;10.40;99.90;;;-141.84;80.46;24784.09;5060245;28;20199;-55
2024/03/15 07:06:43;;;;;;;15.27;12.60;;;10.40;99.90;;;-141.84;82.02;32724.38;5048683;28;20286;-57
2024/03/15 07:09:14;;;;;;;18.33;12.37;;;10.40;99.90;;;-141.84;81.61;30312.91;5064232;28;20221;-57
2024/03/15 07:11:47;;;;;;;15.27;11.27;;;10.40;99.90;;;-141.84;82.36;35588.31;5065016;28;20224;-55
2024/03/15 07:14:17;;;;;;;15.90;11.93;;;10.40;99.90;;;-141.84;80.48;25461.78;5060175;28;20296;-56
2024/03/15 07:16:46;;;;;;;15.33;12.37;;;10.40;99.90;;;-141.84;81.49;29809.59;5072911;28;20197;-57
2024/03/15 07:19:15;;;;;;;14.33;11.70;;;10.50;99.90;;;-141.84;82.64;38515.59;5056558;28;20544;-57
2024/03/15 07:21:44;;;;;;;17.17;12.40;;;10.50;99.90;;;-141.84;81.39;32602.03;5051862;28;20225;-54
2024/03/15 07:24:12;;;;;;;14.37;11.10;;;10.60;99.90;;;-141.84;80.23;24346.59;5028874;28;20221;-54
2024/03/15 07:26:41;;;;;;;14.10;10.93;;;10.60;99.90;;;-141.84;80.88;27487.44;5054029;28;20216;-57
2024/03/15 07:29:11;;;;;;;15.63;12.20;;;10.70;99.90;;;-141.84;80.02;24832.94;5068576;28;20283;-52
2024/03/15 07:31:39;;;;;;;15.27;12.70;;;10.90;99.90;;;-141.84;76.30;19293.59;5073960;28;20202;-55
2024/03/15 07:34:08;;;;;;;16.20;11.43;;;11.00;99.90;;;-141.84;75.45;18998.94;5071856;28;20231;-54
2024/03/15 07:36:38;;;;;;;15.53;11.50;;;11.20;99.90;;;-141.84;74.11;18775.44;5054446;28;20224;-57
2024/03/15 07:39:08;;;;;;;12.70;10.50;;;11.30;99.90;;;-141.84;74.37;18767.31;5049688;28;20220;-55
2024/03/15 07:41:42;;;;;;;14.80;11.63;;;11.30;99.90;;;-141.84;72.75;18625.09;5069538;28;20247;-56
2024/03/15 07:44:11;;;;;;;15.63;11.00;;;11.40;99.90;;;-141.84;73.48;18702.28;5075295;28;20231;-54
2024/03/15 07:46:41;;;;;;;15.50;11.00;;;11.40;99.90;;;-141.84;72.90;18706.38;5072294;28;20208;-56
2024/03/15 07:49:10;;;;;;;14.80;11.53;;;11.40;99.90;;;-141.84;72.09;18606.81;5035320;28;20592;-54
2024/03/15 07:51:38;;;;;;;14.50;11.55;;;11.50;99.90;;;-141.84;71.45;18580.41;5031469;28;20221;-57
2024/03/15 07:54:07;;;;;;;12.85;11.05;;;11.50;99.90;;;-141.84;71.49;18608.84;5035319;28;20767;-56
2024/03/15 07:56:36;;;;;;;14.73;11.13;;;11.50;99.90;;;-141.84;70.94;18606.81;5029193;28;20256;-55
2024/03/15 07:59:05;;;;;;;15.00;12.18;;;11.60;99.90;;;-141.84;70.91;18582.44;5027481;28;20647;-56
2024/03/15 08:01:33;;;;;;;15.43;12.25;;;11.60;99.90;;;-141.84;71.10;18627.13;5038532;28;20273;-58
2024/03/15 08:04:02;;;;;;;14.83;11.60;;;11.70;99.90;;;-141.84;71.12;18604.78;5034888;28;20672;-59
2024/03/15 08:06:33;;;;;;;14.60;11.10;;;11.70;99.90;;;-141.84;70.65;18594.63;5062123;28;20221;-54
2024/03/15 08:09:04;;;;;;;14.07;11.30;;;11.70;99.90;;;-141.84;70.43;18639.31;5048479;28;20672;-58
2024/03/15 08:11:34;;;;;;;13.65;11.43;;;11.80;99.90;;;-141.84;69.13;18566.16;5071410;28;20232;-56
2024/03/15 08:14:05;;;;;;;12.80;10.60;;;11.90;99.90;;;-141.84;68.29;18588.53;5052718;28;20740;-56
2024/03/15 08:16:34;;;;;;;12.30;10.55;;;12.10;99.90;;;-141.84;69.15;18590.56;5075915;28;20284;-56
2024/03/15 08:19:04;;;;;;;14.43;11.68;;;12.10;99.90;;;-141.84;68.04;18608.84;5050145;28;20224;-61
2024/03/15 08:21:34;;;;;;;14.30;11.43;;;12.30;99.90;;;-141.84;66.68;18588.53;5054109;28;20227;-61
2024/03/15 08:24:04;;;;;;;14.45;11.18;;;12.50;99.90;;;-141.84;66.89;18621.03;5077740;28;20285;-62
2024/03/15 08:26:34;;;;;;;13.43;10.80;;;12.50;99.90;;;-141.84;65.75;18598.69;5077034;28;20224;-56
2024/03/15 08:29:03;;;;;;;16.33;11.50;;;12.70;99.90;;;-141.84;65.73;18584.47;5068029;28;20286;-57
2024/03/15 08:31:34;;;;;;;15.38;12.02;;;12.80;99.90;;;-141.84;63.61;18637.28;5049247;28;20184;-57
2024/03/15 08:34:03;;;;;;;12.50;10.18;;;13.00;99.90;;;-141.84;64.64;18598.69;5038487;28;20225;-54
2024/03/15 08:36:36;;;;;;;15.30;11.70;;;13.00;99.90;;;-141.84;64.41;18653.53;5049282;28;20224;-57
2024/03/15 08:39:05;;;;;;;13.30;10.63;;;13.20;99.90;;;-141.84;64.10;18667.75;5033710;28;20252;-55
2024/03/15 08:41:35;;;;;;;12.73;11.13;;;13.30;99.90;;;-141.84;63.07;18704.31;5034506;28;20324;-62
2024/03/15 08:44:03;;;;;;;13.77;10.55;;;13.50;99.90;;;-141.84;62.50;18659.63;5041535;28;20220;-62
2024/03/15 08:46:35;;;;;;;12.68;10.70;;;13.60;99.90;;;-141.84;60.87;18712.47;5059831;28;20303;-56
2024/03/15 08:49:03;;;;;;;12.95;10.43;;;13.70;99.90;;;-141.84;60.55;18671.81;5078099;28;20216;-55
2024/03/15 08:51:34;;;;;;;13.27;11.00;;;13.90;99.90;;;-141.84;59.17;18765.28;5078381;28;20235;-56
2024/03/15 08:54:06;;;;;;;12.13;10.25;;;14.20;99.90;;;-141.84;58.83;18732.78;5075557;28;20308;-55
2024/03/15 08:56:35;;;;;;;13.82;11.60;;;14.30;99.90;;;-141.84;58.23;18712.47;5077895;28;20255;-54
2024/03/15 08:59:04;;;;;;;12.15;10.10;;;14.40;99.90;;;-141.84;57.92;18761.22;5077215;28;20223;-57
2024/03/15 09:01:35;;;;;;;13.25;10.90;;;14.50;99.90;;;-141.84;58.14;18736.84;5061085;28;20677;-56
2024/03/15 09:04:05;;;;;;;11.95;10.40;;;14.60;99.90;;;-141.84;57.05;18789.66;5066903;28;20223;-56
2024/03/15 09:06:35;;;;;;;11.50;10.10;;;14.70;99.90;;;-141.84;57.70;18779.50;5055451;28;20273;-55
2024/03/15 09:09:12;;;;;;;11.73;10.52;;;14.80;99.90;;;-141.84;57.05;18834.38;5063354;28;20216;-54
2024/03/15 09:11:40;;;;;;;13.57;10.23;;;14.80;99.90;;;-141.84;57.05;18803.88;5037614;28;20239;-58
2024/03/15 09:14:10;;;;;;;13.95;10.52;;;14.90;99.90;;;-141.84;57.31;18828.28;5029812;28;20289;-57
2024/03/15 09:16:41;;;;;;;14.00;10.80;;;15.00;99.90;;;-141.84;57.32;18805.91;5034982;28;20204;-56
2024/03/15 09:19:10;;;;;;;11.70;10.40;;;15.00;99.90;;;-141.84;56.66;18824.22;5071122;28;20204;-56
2024/03/15 09:21:40;;;;;;;12.38;10.23;;;15.10;99.90;;;-141.84;57.11;18805.91;5068282;28;20256;-59
2024/03/15 09:24:09;;;;;;;12.27;10.88;;;15.10;99.90;;;-141.84;58.35;18840.47;5047538;28;20330;-59
2024/03/15 09:26:38;;;;;;;12.90;10.50;;;15.00;99.90;;;-141.84;58.74;18781.53;5054073;28;20589;-59
2024/03/15 09:29:07;;;;;;;12.88;10.70;;;15.00;99.90;;;-141.84;58.26;18818.09;5069350;28;20301;-59
2024/03/15 09:31:38;;;;;;;11.60;9.88;;;15.10;99.90;;;-141.84;58.51;18820.16;5053457;28;20209;-55
2024/03/15 09:34:27;;;;;;;11.88;9.52;;;15.30;99.90;;;-141.84;56.84;18834.38;5057503;28;20208;-57
2024/03/15 09:37:02;;;;;;;12.43;9.55;;;15.50;99.90;;;-141.84;55.30;18864.84;5054135;28;20746;-56
2024/03/15 09:39:32;;;;;;;10.63;8.07;;;15.70;99.90;;;-141.84;54.37;18875.00;5052861;28;20255;-56
2024/03/15 09:42:01;;;;;;;10.80;8.23;;;15.80;99.90;;;-141.84;53.39;18913.59;5049161;28;20234;-55
2024/03/15 09:44:31;;;;;;;9.80;7.50;;;15.90;99.90;;;-141.84;52.44;18972.53;5050283;28;20336;-55
2024/03/15 09:46:59;;;;;;;7.63;6.65;;;16.10;99.90;;;-141.84;51.83;19005.03;5032398;28;21123;-54
2024/03/15 09:49:29;;;;;;;8.10;7.20;;;16.20;99.90;;;-141.84;50.87;19005.03;5057451;28;20200;-55
2024/03/15 09:51:58;;;;;;;9.75;6.80;;;16.30;99.90;;;-141.84;50.70;19037.56;5048205;28;20726;-55
2024/03/15 09:54:27;;;;;;;7.10;6.38;;;16.40;99.90;;;-141.84;50.00;19021.31;5056143;28;20269;-55
2024/03/15 09:56:59;;;;;;;7.32;6.13;;;16.50;99.90;;;-141.84;50.16;19051.78;5058224;28;20679;-56
2024/03/15 09:59:29;;;;;;;8.25;6.43;;;16.60;99.90;;;-141.84;49.33;19098.50;5057838;28;20609;-56
2024/03/15 10:01:58;;;;;;;7.40;6.60;;;16.70;99.90;;;-141.84;49.10;19082.25;5023891;28;20699;-57
2024/03/15 10:04:26;;;;;;;8.70;6.80;;;16.90;99.90;;;-141.84;48.42;19126.97;5068167;28;20676;-57